Time;durP1;ratioP1;P1;durP2;ratioP2;P2;SDS_P1;SDS_P2;PMS_P1;PMS_P2;Temp;Humidity;BMP_temperature;BMP_pressure;BME280_temperature;BME280_humidity;BME280_pressure;Samples;Min_cycle;Max_cycle;Signal;HPM_P1;HPM_P2
2023/12/02 00:01:10;;;;;;;21.15;10.68;;;;;;;-3.24;100.00;101135.59;5044438;28;20104;-73
2023/12/02 00:03:36;;;;;;;27.67;12.05;;;;;;;-3.21;100.00;101141.63;5040654;28;20120;-73
2023/12/02 00:06:03;;;;;;;21.92;11.23;;;;;;;-3.19;100.00;101139.09;5033473;28;20040;-73
2023/12/02 00:08:28;;;;;;;23.77;11.77;;;;;;;-3.16;100.00;101134.06;5033483;28;20037;-73
2023/12/02 00:10:54;;;;;;;23.98;11.63;;;;;;;-3.12;100.00;101128.16;5022027;28;20387;-73
2023/12/02 00:13:19;;;;;;;29.35;12.02;;;;;;;-3.08;100.00;101119.69;5029152;28;20065;-73
2023/12/02 00:15:45;;;;;;;24.83;10.75;;;;;;;-3.12;100.00;101139.25;5014059;28;20033;-73
2023/12/02 00:18:10;;;;;;;25.02;11.80;;;;;;;-3.09;100.00;101141.03;5032466;28;20033;-73
2023/12/02 00:20:35;;;;;;;27.52;12.18;;;;;;;-3.05;100.00;101134.28;5013427;28;20092;-73
2023/12/02 00:23:01;;;;;;;26.20;11.57;;;;;;;-3.04;100.00;101131.72;5031039;28;20061;-73
2023/12/02 00:25:26;;;;;;;27.10;11.70;;;;;;;-3.03;100.00;101130.03;5033175;28;20248;-73
2023/12/02 00:27:51;;;;;;;24.95;11.98;;;;;;;-3.03;100.00;101128.34;5032810;28;20051;-73
2023/12/02 00:30:17;;;;;;;20.70;10.85;;;;;;;-2.98;100.00;101124.16;5015457;28;20017;-73
2023/12/02 00:32:42;;;;;;;26.38;11.63;;;;;;;-2.93;100.00;101129.38;5032954;28;20097;-73
2023/12/02 00:35:08;;;;;;;23.58;11.40;;;;;;;-2.85;100.00;101119.28;5036238;28;20029;-73
2023/12/02 00:37:33;;;;;;;26.60;12.93;;;;;;;-2.82;100.00;101116.75;5037241;28;20064;-73
2023/12/02 00:39:59;;;;;;;26.02;12.43;;;;;;;-2.80;100.00;101110.84;5036225;28;20122;-73
2023/12/02 00:42:25;;;;;;;29.45;12.38;;;;;;;-2.77;100.00;101107.44;5036872;28;20029;-73
2023/12/02 00:44:50;;;;;;;26.48;12.20;;;;;;;-2.74;100.00;101128.03;5036523;28;20040;-73
2023/12/02 00:47:15;;;;;;;31.77;13.15;;;;;;;-2.80;100.00;101130.47;5036764;28;20044;-73
2023/12/02 00:49:41;;;;;;;27.92;13.43;;;;;;;-2.79;100.00;101124.50;5036869;28;20122;-73
2023/12/02 00:52:06;;;;;;;24.52;11.88;;;;;;;-2.76;100.00;101115.19;5037479;28;20052;-73
2023/12/02 00:54:35;;;;;;;30.85;13.20;;;;;;;-2.73;100.00;101129.75;5037267;28;20036;-73
2023/12/02 00:57:01;;;;;;;30.60;13.60;;;;;;;-2.70;100.00;101122.13;5036332;28;20091;-73
2023/12/02 00:59:26;;;;;;;29.40;13.18;;;;;;;-2.65;100.00;101122.22;5038128;28;20045;-73
2023/12/02 01:01:51;;;;;;;29.45;14.10;;;;;;;-2.68;100.00;101132.41;5026861;28;20104;-73
2023/12/02 01:04:17;;;;;;;30.00;13.88;;;;;;;-2.61;100.00;101126.53;5036935;28;20228;-73
2023/12/02 01:06:42;;;;;;;28.38;13.80;;;;;;;-2.58;100.00;101114.66;5036681;28;20232;-73
2023/12/02 01:09:07;;;;;;;26.45;11.88;;;;;;;-2.55;100.00;101122.41;5037040;28;20352;-73
2023/12/02 01:11:33;;;;;;;29.10;13.63;;;;;;;-2.54;100.00;101125.81;5036407;28;20401;-73
2023/12/02 01:13:58;;;;;;;28.98;13.65;;;;;;;-2.51;100.00;101110.47;5037124;28;20388;-73
2023/12/02 01:16:23;;;;;;;31.70;13.55;;;;;;;-2.49;100.00;101107.94;5036838;28;20037;-73
2023/12/02 01:18:49;;;;;;;33.63;14.15;;;;;;;-2.48;100.00;101114.81;5036566;28;20033;-73
2023/12/02 01:21:14;;;;;;;31.75;14.45;;;;;;;-2.52;100.00;101124.16;5044234;28;20090;-73
2023/12/02 01:23:39;;;;;;;29.50;14.25;;;;;;;-2.51;100.00;101138.69;5042756;28;20082;-73
2023/12/02 01:26:05;;;;;;;30.88;13.70;;;;;;;-2.53;100.00;101135.22;5036592;28;20060;-73
2023/12/02 01:28:30;;;;;;;27.48;13.40;;;;;;;-2.48;100.00;101130.19;5036790;28;20052;-73
2023/12/02 01:30:56;;;;;;;29.30;13.38;;;;;;;-2.41;100.00;101132.03;5036873;28;20043;-73
2023/12/02 01:33:21;;;;;;;30.92;13.77;;;;;;;-2.41;100.00;101132.03;5036929;28;20060;-73
2023/12/02 01:35:48;;;;;;;31.02;14.45;;;;;;;-2.39;100.00;101133.78;5036290;28;20029;-73
2023/12/02 01:38:13;;;;;;;28.45;12.60;;;;;;;-2.33;100.00;101133.00;5036540;28;20041;-73
2023/12/02 01:40:38;;;;;;;30.40;14.18;;;;;;;-2.38;100.00;101139.78;5035916;28;20108;-73
2023/12/02 01:43:04;;;;;;;31.85;14.30;;;;;;;-2.37;100.00;101139.78;5036273;28;20044;-73
2023/12/02 01:45:29;;;;;;;28.63;13.80;;;;;;;-2.36;100.00;101140.66;5035499;28;20052;-73
2023/12/02 01:47:56;;;;;;;31.05;14.18;;;;;;;-2.33;100.00;101143.25;5036493;28;20099;-73
2023/12/02 01:50:22;;;;;;;29.40;13.55;;;;;;;-2.30;100.00;101138.19;5036103;28;20045;-73
2023/12/02 01:52:48;;;;;;;35.50;13.55;;;;;;;-2.29;100.00;101142.50;5036084;28;20119;-73
2023/12/02 01:55:13;;;;;;;32.13;14.20;;;;;;;-2.29;100.00;101133.91;5036013;28;20045;-73
2023/12/02 01:57:39;;;;;;;33.42;13.50;;;;;;;-2.28;100.00;101144.22;5036002;28;20208;-73
2023/12/02 02:00:05;;;;;;;37.55;15.70;;;;;;;-2.28;100.00;101133.09;5036028;28;20049;-73
2023/12/02 02:02:31;;;;;;;30.80;13.93;;;;;;;-2.28;100.00;101131.38;5036008;28;20226;-73
2023/12/02 02:04:56;;;;;;;30.33;13.18;;;;;;;-2.26;100.00;101133.97;5036020;28;20241;-73
2023/12/02 02:07:21;;;;;;;34.25;14.77;;;;;;;-2.25;100.00;101126.31;5035976;28;20075;-73
2023/12/02 02:09:48;;;;;;;32.17;14.35;;;;;;;-2.22;100.00;101134.06;5035790;28;20041;-73
2023/12/02 02:12:14;;;;;;;35.05;14.75;;;;;;;-2.21;100.00;101135.78;5035855;28;20068;-73
2023/12/02 02:14:40;;;;;;;31.35;15.10;;;;;;;-2.21;100.00;101127.22;5036215;28;20413;-73
2023/12/02 02:17:06;;;;;;;35.38;14.73;;;;;;;-2.18;100.00;101132.41;5035670;28;20061;-73
2023/12/02 02:19:32;;;;;;;27.08;13.25;;;;;;;-2.17;100.00;101129.84;5035272;28;20041;-73
2023/12/02 02:21:57;;;;;;;34.20;13.95;;;;;;;-2.16;100.00;101121.31;5035301;28;20041;-73
2023/12/02 02:24:23;;;;;;;26.02;13.35;;;;;;;-2.16;100.00;101123.03;5035792;28;20033;-73
2023/12/02 02:26:48;;;;;;;27.38;13.77;;;;;;;-2.18;100.00;101125.56;5035409;28;20228;-73
2023/12/02 02:29:13;;;;;;;31.00;14.25;;;;;;;-2.16;100.00;101128.16;5035676;28;20116;-73
2023/12/02 02:31:39;;;;;;;31.60;14.68;;;;;;;-2.14;100.00;101136.75;5035226;28;20071;-73
2023/12/02 02:34:04;;;;;;;27.83;14.18;;;;;;;-2.13;100.00;101146.16;5035422;28;20447;-73
2023/12/02 02:36:29;;;;;;;30.42;12.80;;;;;;;-2.08;100.00;101126.56;5035693;28;20045;-73
2023/12/02 02:38:55;;;;;;;34.30;14.10;;;;;;;-2.06;100.00;101134.31;5035329;28;20242;-73
2023/12/02 02:41:20;;;;;;;30.75;14.55;;;;;;;-2.06;100.00;101124.88;5035090;28;20351;-73
2023/12/02 02:43:46;;;;;;;34.55;14.98;;;;;;;-2.03;100.00;101136.94;5035074;28;20228;-73
2023/12/02 02:46:13;;;;;;;35.00;15.38;;;;;;;-2.04;100.00;101142.88;5034837;28;20228;-73
2023/12/02 02:48:38;;;;;;;32.28;14.57;;;;;;;-2.03;100.00;101154.91;5034942;28;20100;-73
2023/12/02 02:51:04;;;;;;;31.30;14.02;;;;;;;-2.03;100.00;101145.47;5035166;28;20359;-73
2023/12/02 02:53:29;;;;;;;33.22;14.57;;;;;;;-2.01;100.00;101140.38;5034980;28;20040;-73
2023/12/02 02:55:55;;;;;;;30.52;13.98;;;;;;;-2.01;100.00;101148.94;5035092;28;20087;-73
2023/12/02 02:58:20;;;;;;;29.95;13.95;;;;;;;-2.02;100.00;101142.09;5033769;28;20199;-73
2023/12/02 03:00:45;;;;;;;34.45;15.73;;;;;;;-2.06;100.00;101140.28;5034621;28;20040;-73
2023/12/02 03:03:11;;;;;;;33.78;14.55;;;;;;;-2.08;100.00;101144.53;5034992;28;20073;-73
2023/12/02 03:05:36;;;;;;;35.55;14.98;;;;;;;-2.12;100.00;101138.50;5034748;28;20049;-73
2023/12/02 03:08:01;;;;;;;31.15;15.02;;;;;;;-2.10;100.00;101137.66;5034460;28;20056;-73
2023/12/02 03:10:27;;;;;;;30.88;14.07;;;;;;;-2.09;100.00;101135.13;5033919;28;20072;-73
2023/12/02 03:12:52;;;;;;;33.20;14.98;;;;;;;-2.07;100.00;101147.97;5034628;28;20041;-73
2023/12/02 03:15:18;;;;;;;31.65;14.68;;;;;;;-2.09;100.00;101149.66;5034274;28;20086;-73
2023/12/02 03:17:43;;;;;;;32.60;14.73;;;;;;;-2.11;100.00;101141.94;5034844;28;20052;-74
2023/12/02 03:20:10;;;;;;;37.92;15.60;;;;;;;-2.14;100.00;101136.75;5034053;28;20029;-74
2023/12/02 03:22:35;;;;;;;41.88;16.58;;;;;;;-2.12;100.00;101142.78;5033968;28;20072;-74
2023/12/02 03:25:01;;;;;;;33.30;15.25;;;;;;;-2.16;100.00;101139.28;5034644;28;20060;-74
2023/12/02 03:27:26;;;;;;;33.13;15.00;;;;;;;-2.17;100.00;101144.41;5015901;28;20056;-74
2023/12/02 03:29:51;;;;;;;36.33;15.65;;;;;;;-2.20;100.00;101132.38;5034741;28;20232;-74
2023/12/02 03:32:17;;;;;;;33.90;14.80;;;;;;;-2.19;100.00;101133.25;5034351;28;20030;-74
2023/12/02 03:34:42;;;;;;;38.88;14.90;;;;;;;-2.20;100.00;101136.63;5033957;28;20069;-74
2023/12/02 03:37:07;;;;;;;29.00;13.93;;;;;;;-2.18;100.00;101140.13;5030030;28;20037;-74
2023/12/02 03:39:33;;;;;;;29.48;14.35;;;;;;;-2.16;100.00;101136.72;5033790;28;20240;-74
2023/12/02 03:41:58;;;;;;;40.65;15.60;;;;;;;-2.16;100.00;101131.59;5033276;28;20322;-74
2023/12/02 03:44:24;;;;;;;36.80;15.25;;;;;;;-2.17;100.00;101134.97;5034288;28;20029;-74
2023/12/02 03:46:49;;;;;;;37.28;15.30;;;;;;;-2.17;100.00;101139.25;5033564;28;20065;-74
2023/12/02 03:49:14;;;;;;;32.25;13.98;;;;;;;-2.20;100.00;101136.63;5034133;28;20067;-74
2023/12/02 03:51:40;;;;;;;31.67;15.18;;;;;;;-2.22;100.00;101144.34;5034030;28;20376;-74
2023/12/02 03:54:05;;;;;;;35.13;15.77;;;;;;;-2.23;100.00;101145.16;5033877;28;20029;-74
2023/12/02 03:56:31;;;;;;;33.67;14.27;;;;;;;-2.25;100.00;101139.13;5033277;28;20047;-74
2023/12/02 03:58:56;;;;;;;36.22;15.65;;;;;;;-2.26;100.00;101144.25;5034031;28;20041;-74
2023/12/02 04:01:22;;;;;;;35.92;15.57;;;;;;;-2.29;100.00;101147.63;5033435;28;20052;-73
2023/12/02 04:03:47;;;;;;;33.80;15.57;;;;;;;-2.32;100.00;101143.28;5032962;28;20037;-73
2023/12/02 04:06:13;;;;;;;28.27;13.95;;;;;;;-2.34;100.00;101144.97;5033731;28;20060;-73
2023/12/02 04:08:39;;;;;;;32.67;14.10;;;;;;;-2.35;100.00;101157.78;5034316;28;20598;-73
2023/12/02 04:11:05;;;;;;;31.52;14.13;;;;;;;-2.38;100.00;101162.88;5040348;28;20145;-73
2023/12/02 04:13:31;;;;;;;36.05;15.32;;;;;;;-2.40;100.00;101164.50;5040102;28;20041;-73
2023/12/02 04:15:56;;;;;;;32.90;15.07;;;;;;;-2.40;100.00;101165.41;5039809;28;20118;-73
2023/12/02 04:18:21;;;;;;;33.70;15.50;;;;;;;-2.39;100.00;101176.53;5040375;28;20112;-73
2023/12/02 04:20:47;;;;;;;29.80;13.70;;;;;;;-2.35;100.00;101175.72;5039510;28;20041;-73
2023/12/02 04:23:14;;;;;;;35.10;14.00;;;;;;;-2.28;100.00;101176.72;5039982;28;20101;-74
2023/12/02 04:25:39;;;;;;;31.38;15.35;;;;;;;-2.27;100.00;101174.19;5039642;28;20394;-73
2023/12/02 04:28:05;;;;;;;37.30;15.98;;;;;;;-2.29;100.00;101172.41;5040405;28;20029;-73
2023/12/02 04:30:30;;;;;;;33.97;15.02;;;;;;;-2.33;100.00;101167.25;5039871;28;20033;-73
2023/12/02 04:32:55;;;;;;;35.78;16.33;;;;;;;-2.31;100.00;101180.06;5040238;28;20295;-73
2023/12/02 04:35:21;;;;;;;30.23;14.25;;;;;;;-2.33;100.00;101172.38;5039775;28;20057;-73
2023/12/02 04:37:46;;;;;;;30.92;15.13;;;;;;;-2.35;100.00;101173.16;5039660;28;20048;-73
2023/12/02 04:40:12;;;;;;;32.67;13.50;;;;;;;-2.38;100.00;101175.69;5039861;28;20048;-73
2023/12/02 04:42:39;;;;;;;36.95;15.18;;;;;;;-2.40;100.00;101178.22;5039729;28;20125;-73
2023/12/02 04:45:05;;;;;;;34.22;14.10;;;;;;;-2.44;100.00;101173.00;5039958;28;20299;-73
2023/12/02 04:47:31;;;;;;;34.58;14.50;;;;;;;-2.48;100.00;101164.38;5039947;28;20040;-73
2023/12/02 04:49:56;;;;;;;31.45;13.70;;;;;;;-2.52;100.00;101172.88;5021942;28;20029;-73
2023/12/02 04:52:21;;;;;;;36.22;16.08;;;;;;;-2.54;100.00;101170.28;5040111;28;20128;-73
2023/12/02 04:54:47;;;;;;;36.65;15.02;;;;;;;-2.54;100.00;101177.97;5039880;28;20029;-73
2023/12/02 04:57:12;;;;;;;32.70;15.15;;;;;;;-2.55;100.00;101183.06;5040009;28;20037;-73
2023/12/02 04:59:37;;;;;;;31.38;15.18;;;;;;;-2.59;100.00;101182.13;5039762;28;20533;-73
2023/12/02 05:02:03;;;;;;;32.63;15.13;;;;;;;-2.59;100.00;101183.84;5039906;28;20369;-73
2023/12/02 05:04:29;;;;;;;36.15;15.00;;;;;;;-2.60;100.00;101189.81;5040128;28;20029;-73
2023/12/02 05:06:54;;;;;;;33.03;14.35;;;;;;;-2.63;100.00;101188.06;5039717;28;20096;-73
2023/12/02 05:09:21;;;;;;;35.10;15.68;;;;;;;-2.66;100.00;101190.56;5039320;28;20244;-73
2023/12/02 05:11:47;;;;;;;34.30;16.05;;;;;;;-2.67;100.00;101198.22;5038935;28;20029;-73
2023/12/02 05:14:12;;;;;;;33.85;15.00;;;;;;;-2.70;100.00;101199.03;5039817;28;20232;-73
2023/12/02 05:16:41;;;;;;;34.45;14.93;;;;;;;-2.70;100.00;101204.16;5039467;28;20042;-73
2023/12/02 05:19:06;;;;;;;38.22;15.52;;;;;;;-2.70;100.00;101201.59;5039625;28;20310;-73
2023/12/02 05:21:32;;;;;;;33.63;16.27;;;;;;;-2.70;100.00;101197.31;5035792;28;20258;-73
2023/12/02 05:23:57;;;;;;;31.42;15.30;;;;;;;-2.68;100.00;101204.19;5036672;28;20033;-73
2023/12/02 05:26:22;;;;;;;34.10;14.95;;;;;;;-2.71;100.00;101199.84;5036305;28;20254;-73
2023/12/02 05:28:48;;;;;;;35.08;15.23;;;;;;;-2.73;100.00;101202.41;5035989;28;20344;-73
2023/12/02 05:31:13;;;;;;;37.97;15.57;;;;;;;-2.75;100.00;101208.31;5036245;28;20044;-73
2023/12/02 05:33:38;;;;;;;33.10;15.35;;;;;;;-2.77;100.00;101210.00;5036251;28;20037;-73
2023/12/02 05:36:04;;;;;;;37.40;16.67;;;;;;;-2.78;100.00;101205.72;5036015;28;20064;-73
2023/12/02 05:38:29;;;;;;;34.20;14.68;;;;;;;-2.79;100.00;101203.97;5035775;28;20244;-73
2023/12/02 05:40:54;;;;;;;37.88;16.13;;;;;;;-2.79;100.00;101211.66;5035703;28;20069;-73
2023/12/02 05:43:20;;;;;;;33.28;15.63;;;;;;;-2.78;100.00;101209.13;5036494;28;20092;-73
2023/12/02 05:45:45;;;;;;;32.90;14.75;;;;;;;-2.78;100.00;101219.41;5035736;28;20699;-73
2023/12/02 05:48:10;;;;;;;35.88;16.10;;;;;;;-2.79;100.00;101225.34;5035368;28;20261;-73
2023/12/02 05:50:36;;;;;;;33.75;15.02;;;;;;;-2.82;100.00;101224.41;5035175;28;20060;-73
2023/12/02 05:53:04;;;;;;;34.33;15.63;;;;;;;-2.84;100.00;101226.09;5035542;28;20041;-73
2023/12/02 05:55:30;;;;;;;38.05;16.35;;;;;;;-2.86;100.00;101226.06;5036255;28;20041;-73
2023/12/02 05:57:55;;;;;;;36.35;16.10;;;;;;;-2.86;100.00;101228.63;5027205;28;20203;-73
2023/12/02 06:00:20;;;;;;;34.53;15.80;;;;;;;-2.87;100.00;101232.03;5033750;28;20037;-73
2023/12/02 06:02:46;;;;;;;31.80;15.27;;;;;;;-2.89;100.00;101233.69;5035455;28;20103;-73
2023/12/02 06:05:11;;;;;;;32.97;15.23;;;;;;;-2.93;100.00;101232.78;5035871;28;20044;-73
2023/12/02 06:07:36;;;;;;;38.40;15.98;;;;;;;-2.94;100.00;101228.47;5036275;28;20045;-73
2023/12/02 06:10:02;;;;;;;31.58;14.90;;;;;;;-2.97;100.00;101236.06;5035933;28;20048;-73
2023/12/02 06:12:27;;;;;;;29.95;14.18;;;;;;;-2.98;100.00;101233.50;5017299;28;20034;-73
2023/12/02 06:14:53;;;;;;;34.38;15.30;;;;;;;-3.03;100.00;101237.66;5035883;28;20075;-73
2023/12/02 06:17:18;;;;;;;34.53;15.82;;;;;;;-3.04;100.00;101243.59;5035931;28;20155;-73
2023/12/02 06:19:43;;;;;;;34.67;14.80;;;;;;;-3.08;100.00;101246.09;5035802;28;20029;-73
2023/12/02 06:22:09;;;;;;;30.75;14.45;;;;;;;-3.08;100.00;101242.69;5050889;28;20124;-73
2023/12/02 06:24:34;;;;;;;31.27;13.80;;;;;;;-3.07;100.00;101241.84;5050272;28;20060;-73
2023/12/02 06:27:00;;;;;;;35.42;15.50;;;;;;;-3.08;100.00;101248.66;5053105;28;20043;-73
2023/12/02 06:29:26;;;;;;;31.33;15.20;;;;;;;-3.12;100.00;101249.44;5043444;28;20355;-73
2023/12/02 06:31:51;;;;;;;31.05;14.88;;;;;;;-3.14;100.00;101255.38;5055219;28;20043;-73
2023/12/02 06:34:17;;;;;;;33.08;15.18;;;;;;;-3.13;100.00;101264.78;5047172;28;20228;-73
2023/12/02 06:36:44;;;;;;;33.92;15.00;;;;;;;-3.16;100.00;101252.78;5044781;28;20589;-73
2023/12/02 06:39:10;;;;;;;30.10;14.35;;;;;;;-3.14;100.00;101255.38;5044308;28;20029;-73
2023/12/02 06:41:38;;;;;;;32.78;14.70;;;;;;;-3.16;100.00;101262.16;5054731;28;20052;-73
2023/12/02 06:44:03;;;;;;;34.40;15.75;;;;;;;-3.17;100.00;101265.53;5039169;28;20331;-73
2023/12/02 06:46:28;;;;;;;32.90;15.27;;;;;;;-3.18;100.00;101267.25;5035358;28;20045;-73
2023/12/02 06:48:54;;;;;;;36.50;15.52;;;;;;;-3.17;100.00;101270.66;5041653;28;20360;-73
2023/12/02 06:51:21;;;;;;;33.90;15.27;;;;;;;-3.16;100.00;101273.25;5035495;28;20029;-73
2023/12/02 06:53:46;;;;;;;36.40;15.00;;;;;;;-3.17;100.00;101281.78;5033771;28;20032;-73
2023/12/02 06:56:22;;;;;;;30.42;14.50;;;;;;;-3.17;100.00;101291.16;5033110;28;20076;-72
2023/12/02 06:58:49;;;;;;;33.83;15.07;;;;;;;-3.18;100.00;101300.56;5043764;28;20032;-72
2023/12/02 07:01:32;;;;;;;35.03;14.88;;;;;;;-3.19;100.00;101288.56;5036636;28;20052;-72
2023/12/02 07:03:59;;;;;;;34.45;14.70;;;;;;;-3.20;100.00;101297.09;5031764;28;20369;-72
2023/12/02 07:06:25;;;;;;;37.42;16.52;;;;;;;-3.19;100.00;101300.50;5034752;28;20061;-72
2023/12/02 07:08:52;;;;;;;37.10;15.93;;;;;;;-3.20;100.00;101298.75;5033758;28;20037;-73
2023/12/02 07:11:17;;;;;;;36.75;15.60;;;;;;;-3.20;100.00;101302.22;5032286;28;20049;-72
2023/12/02 07:13:43;;;;;;;35.55;15.13;;;;;;;-3.21;100.00;101303.03;5052431;28;20017;-72
2023/12/02 07:16:09;;;;;;;37.20;15.32;;;;;;;-3.19;100.00;101313.31;5051677;28;20123;-73
2023/12/02 07:18:35;;;;;;;37.47;15.82;;;;;;;-3.20;100.00;101303.88;5033789;28;20045;-72
2023/12/02 07:21:00;;;;;;;41.08;15.75;;;;;;;-3.18;100.00;101308.25;5031331;28;20261;-73
2023/12/02 07:23:25;;;;;;;36.15;16.35;;;;;;;-3.16;100.00;101310.84;5031915;28;20063;-73
2023/12/02 07:25:52;;;;;;;37.83;16.23;;;;;;;-3.15;100.00;101312.56;5032009;28;20040;-73
2023/12/02 07:28:17;;;;;;;35.83;16.92;;;;;;;-3.16;100.00;101309.13;5033154;28;20540;-72
2023/12/02 07:30:43;;;;;;;37.15;16.75;;;;;;;-3.10;100.00;101311.81;5032294;28;20064;-72
2023/12/02 07:33:08;;;;;;;43.85;17.08;;;;;;;-3.04;100.00;101312.81;5032680;28;20029;-72
2023/12/02 07:35:34;;;;;;;49.03;17.80;;;;;;;-3.01;100.00;101316.31;5030168;28;20152;-72
2023/12/02 07:38:00;;;;;;;35.05;15.57;;;;;;;-2.98;100.00;101321.50;5039710;28;20037;-72
2023/12/02 07:40:25;;;;;;;38.08;16.63;;;;;;;-2.92;100.00;101320.78;5039029;28;20040;-73
2023/12/02 07:42:51;;;;;;;35.50;16.55;;;;;;;-2.90;100.00;101324.22;5049297;28;20087;-72
2023/12/02 07:45:16;;;;;;;36.40;16.67;;;;;;;-2.88;100.00;101322.56;5051917;28;20078;-72
2023/12/02 07:47:41;;;;;;;39.05;17.38;;;;;;;-2.85;100.00;101324.34;5017745;28;20262;-72
2023/12/02 07:50:07;;;;;;;41.08;17.83;;;;;;;-2.87;100.00;101329.44;5033829;28;20363;-72
2023/12/02 07:52:33;;;;;;;38.63;17.30;;;;;;;-2.83;100.00;101320.97;5033224;28;20540;-72
2023/12/02 07:54:58;;;;;;;38.85;15.95;;;;;;;-2.75;100.00;101327.16;5033902;28;20067;-72
2023/12/02 07:57:23;;;;;;;38.00;16.75;;;;;;;-2.70;100.00;101337.50;5015337;28;20386;-72
2023/12/02 07:59:49;;;;;;;37.60;16.17;;;;;;;-2.63;100.00;101341.91;5033602;28;20037;-72
2023/12/02 08:02:14;;;;;;;41.95;17.90;;;;;;;-2.58;100.00;101340.31;5033410;28;20044;-72
2023/12/02 08:04:39;;;;;;;40.63;16.58;;;;;;;-2.53;100.00;101348.09;5032948;28;20064;-72
2023/12/02 08:07:05;;;;;;;39.65;17.63;;;;;;;-2.52;100.00;101353.25;5039289;28;20045;-72
2023/12/02 08:09:30;;;;;;;46.97;18.50;;;;;;;-2.51;100.00;101354.13;5041172;28;20551;-72
2023/12/02 08:11:56;;;;;;;44.22;17.55;;;;;;;-2.48;100.00;101358.47;5042711;28;20029;-72
2023/12/02 08:14:21;;;;;;;46.10;17.65;;;;;;;-2.47;100.00;101361.06;5038000;28;20272;-72
2023/12/02 08:16:46;;;;;;;44.72;17.95;;;;;;;-2.47;100.00;101371.31;5046200;28;20232;-72
2023/12/02 08:19:12;;;;;;;46.40;19.08;;;;;;;-2.45;100.00;101361.09;5042460;28;21567;-72
2023/12/02 08:21:37;;;;;;;39.72;17.25;;;;;;;-2.37;100.00;101364.69;5059047;28;20082;-72
2023/12/02 08:24:03;;;;;;;35.50;16.33;;;;;;;-2.31;100.00;101362.22;5068461;28;20036;-72
2023/12/02 08:26:28;;;;;;;42.90;18.30;;;;;;;-2.28;100.00;101369.13;5068546;28;20241;-72
2023/12/02 08:28:53;;;;;;;40.63;17.10;;;;;;;-2.24;100.00;101360.66;5066697;28;20104;-72
2023/12/02 08:31:18;;;;;;;39.58;16.77;;;;;;;-2.20;100.00;101365.91;5068545;28;20403;-72
2023/12/02 08:33:44;;;;;;;39.97;17.80;;;;;;;-2.19;100.00;101371.91;5069844;28;20480;-72
2023/12/02 08:36:10;;;;;;;39.92;17.63;;;;;;;-2.17;100.00;101376.22;5067913;28;20039;-72
2023/12/02 08:38:35;;;;;;;46.03;18.23;;;;;;;-2.17;100.00;101378.78;5065405;28;20044;-72
2023/12/02 08:41:00;;;;;;;44.83;18.05;;;;;;;-2.15;100.00;101387.41;5066671;28;20090;-72
2023/12/02 08:43:26;;;;;;;39.15;17.38;;;;;;;-2.13;100.00;101388.28;5069936;28;20147;-72
2023/12/02 08:45:51;;;;;;;39.20;17.88;;;;;;;-2.08;100.00;101385.78;5070014;28;20032;-72
2023/12/02 08:48:16;;;;;;;39.10;17.75;;;;;;;-2.04;100.00;101381.59;5067690;28;20041;-72
2023/12/02 08:50:43;;;;;;;42.95;18.58;;;;;;;-2.03;100.00;101385.91;5067080;28;20094;-72
2023/12/02 08:53:09;;;;;;;42.50;18.45;;;;;;;-1.99;100.00;101392.81;5068722;28;20043;-72
2023/12/02 08:55:34;;;;;;;36.72;17.15;;;;;;;-1.95;100.00;101386.91;5068524;28;20367;-72
2023/12/02 08:57:59;;;;;;;40.47;16.23;;;;;;;-1.90;100.00;101387.88;5071778;28;20051;-72
2023/12/02 09:00:25;;;;;;;48.47;18.70;;;;;;;-1.86;100.00;101388.78;5067750;28;20037;-72
2023/12/02 09:02:51;;;;;;;41.83;17.20;;;;;;;-1.82;100.00;101388.88;5047999;28;20462;-72
2023/12/02 09:05:16;;;;;;;40.53;19.58;;;;;;;-1.77;100.00;101392.38;5054061;28;20467;-72
2023/12/02 09:07:41;;;;;;;41.05;18.30;;;;;;;-1.71;100.00;101395.91;5055963;28;20040;-72
2023/12/02 09:10:09;;;;;;;46.08;19.63;;;;;;;-1.66;100.00;101402.84;5056086;28;20352;-72
2023/12/02 09:12:34;;;;;;;50.20;20.45;;;;;;;-1.63;100.00;101408.06;5055527;28;20303;-72
2023/12/02 09:15:07;;;;;;;41.72;17.70;;;;;;;-1.57;100.00;101408.16;5055704;28;20057;-72
2023/12/02 09:17:47;;;;;;;45.25;20.27;;;;;;;-1.56;100.00;101419.31;5055558;28;20033;-72
2023/12/02 09:20:40;;;;;;;44.97;19.88;;;;;;;-1.52;100.00;101415.09;5054257;28;20048;-72
2023/12/02 09:23:06;;;;;;;56.22;22.67;;;;;;;-1.50;100.00;101416.84;5038365;28;20044;-72
2023/12/02 09:25:38;;;;;;;41.40;19.48;;;;;;;-1.46;100.00;101421.22;5041308;28;20222;-72
2023/12/02 09:28:06;;;;;;;45.72;20.30;;;;;;;-1.42;100.00;101420.44;5060713;28;20036;-72
2023/12/02 09:30:36;;;;;;;44.58;20.40;;;;;;;-1.39;100.00;101419.63;5067644;28;20331;-72
2023/12/02 09:33:04;;;;;;;51.92;20.88;;;;;;;-1.38;100.00;101418.78;5057351;28;20033;-72
2023/12/02 09:35:30;;;;;;;45.88;20.10;;;;;;;-1.33;100.00;101427.44;5055696;28;20140;-72
2023/12/02 09:37:57;;;;;;;53.65;22.10;;;;;;;-1.30;100.00;101430.06;5054796;28;20336;-72
2023/12/02 09:40:25;;;;;;;48.95;20.98;;;;;;;-1.26;100.00;101428.41;5055887;28;20422;-72
2023/12/02 09:43:25;;;;;;;49.35;21.83;;;;;;;-1.21;100.00;101426.78;5045982;28;20457;-72
2023/12/02 09:46:09;;;;;;;47.08;21.05;;;;;;;-1.18;100.00;101432.00;5030518;28;20047;-72
2023/12/02 09:48:48;;;;;;;45.88;20.52;;;;;;;-1.15;100.00;101426.88;5055548;28;20232;-72
2023/12/02 09:51:41;;;;;;;44.97;19.83;;;;;;;-1.10;100.00;101430.41;5056109;28;20041;-72
2023/12/02 09:54:16;;;;;;;39.90;18.42;;;;;;;-1.08;100.00;101428.72;5055390;28;20041;-72
2023/12/02 09:56:47;;;;;;;44.65;20.05;;;;;;;-1.06;100.00;101424.47;5055170;28;20100;-72
2023/12/02 09:59:25;;;;;;;38.15;18.00;;;;;;;-1.01;100.00;101429.69;5054904;28;20043;-72
2023/12/02 10:02:13;;;;;;;48.67;21.35;;;;;;;-0.98;100.00;101430.59;5055706;28;20045;-72
2023/12/02 10:05:07;;;;;;;43.80;17.83;;;;;;;-0.95;100.00;101432.34;5053980;28;20064;-72
2023/12/02 10:07:52;;;;;;;52.50;22.33;;;;;;;-0.94;100.00;101431.53;5036649;28;20075;-72
2023/12/02 10:10:22;;;;;;;53.70;22.17;;;;;;;-0.92;100.00;101428.97;5051969;28;20052;-72
2023/12/02 10:13:15;;;;;;;52.90;21.08;;;;;;;-0.89;100.00;101434.16;5054666;28;20414;-72
2023/12/02 10:15:42;;;;;;;48.38;20.45;;;;;;;-0.88;100.00;101441.91;5044195;28;20033;-72
2023/12/02 10:18:12;;;;;;;44.80;20.30;;;;;;;-0.86;100.00;101432.50;5043579;28;20041;-72
2023/12/02 10:20:41;;;;;;;39.45;19.38;;;;;;;-0.84;100.00;101429.94;5048140;28;20095;-72
2023/12/02 10:23:28;;;;;;;48.92;21.40;;;;;;;-0.81;100.00;101441.16;5035069;28;20068;-72
2023/12/02 10:26:05;;;;;;;48.88;20.13;;;;;;;-0.79;100.00;101442.03;5031562;28;20044;-72
2023/12/02 10:28:43;;;;;;;49.40;21.83;;;;;;;-0.74;100.00;101446.41;5034882;28;20037;-72
2023/12/02 10:31:17;;;;;;;48.42;20.75;;;;;;;-0.73;100.00;101448.13;5034968;28;20265;-72
2023/12/02 10:34:18;;;;;;;46.20;19.67;;;;;;;-0.71;100.00;101447.31;5023947;28;20105;-72
2023/12/02 10:36:48;;;;;;;44.65;19.88;;;;;;;-0.65;100.00;101447.41;5028247;28;20222;-72
2023/12/02 10:39:29;;;;;;;48.67;20.38;;;;;;;-0.60;100.00;101448.34;5032300;28;20036;-72
2023/12/02 10:42:03;;;;;;;59.67;23.77;;;;;;;-0.56;100.00;101446.69;5031873;28;20060;-72
2023/12/02 10:44:33;;;;;;;54.03;22.85;;;;;;;-0.52;100.00;101443.31;5031897;28;20025;-72
2023/12/02 10:47:00;;;;;;;47.70;20.45;;;;;;;-0.47;100.00;101438.25;5033788;28;20052;-72
2023/12/02 10:49:28;;;;;;;53.92;22.58;;;;;;;-0.41;100.00;101440.88;5031356;28;20381;-72
2023/12/02 10:51:55;;;;;;;48.15;21.08;;;;;;;-0.36;100.00;101439.25;5034136;28;20276;-73
2023/12/02 10:54:25;;;;;;;45.80;19.75;;;;;;;-0.31;100.00;101427.31;5032290;28;20125;-72
2023/12/02 10:56:59;;;;;;;60.10;23.33;;;;;;;-0.29;100.00;101440.19;5035583;28;20041;-73
2023/12/02 10:59:28;;;;;;;53.33;21.40;;;;;;;-0.24;100.00;101431.69;5035324;28;20032;-73
2023/12/02 11:02:00;;;;;;;54.42;23.38;;;;;;;-0.18;100.00;101435.19;5031637;28;20052;-72